Latest Weather Observations for PORTABLE RFSNSW15

IDN60801

Issued at 9:32 pm EDT Friday 22 November 2019 (issued every 10 minutes, with the page automatically refreshed every 10 minutes)

About weather observations | Map of weather stations | Latest weather observations for NSW | Other Formats
Station Details ID: 250080 Name: PORTABLE RFSNSW15 Lat: -28.40 Lon: 152.61 Height: 445.0 m

Portable automatic weather stations (PAWS) are operated by other organisations, such as Fire and Emergency Services, and are included here by agreement. Portable stations may be deployed to a location for a short period and their location may be subject to change without notice. Wind observations from these stations are provided from heights of either three (3) or ten (10) metres above ground level (AGL).

Data from the previous 72 hours. | See also: Recent months for locations in New South Wales
Date/Time
EDT
Temp
°C
App
Temp
°C
Dew
Point
°C
Rel
Hum
%
Delta-T
°C
Wind Press
QNH
hPa
Press
MSL
hPa
Rain since
9am
mm
Dir  Spd
km/h
Gust
km/h
Spd
kts
Gust
kts
22/09:20pm 20.9 18.5 15.5 71 3.3 NNE 22 30 12 16 - - 0.0
22/09:10pm 21.2 18.8 15.3 69 3.6 NNE 22 26 12 14 - - 0.0
22/09:00pm 21.4 18.2 15.2 68 3.7 NNE 26 30 14 16 - - 0.0
22/08:50pm 21.6 19.6 14.9 65 4.0 NNE 19 22 10 12 - - 0.0
22/08:40pm 21.8 19.7 14.7 64 4.3 NNE 19 22 10 12 - - 0.0
22/08:30pm 22.1 19.4 14.7 63 4.4 NNE 22 26 12 14 - - 0.0
22/08:20pm 22.3 18.8 14.4 61 4.7 NNE 26 30 14 16 - - 0.0
22/08:10pm 22.6 19.0 14.2 59 5.0 NNE 26 32 14 17 - - 0.0
22/08:00pm 23.1 19.4 13.9 56 5.5 NNE 26 32 14 17 - - 0.0
22/07:50pm 23.5 18.8 13.1 52 6.1 NNE 30 32 16 17 - - 0.0
22/07:40pm 24.0 20.4 12.0 47 7.0 NNE 22 26 12 14 - - 0.0
22/07:30pm 24.5 21.1 10.6 41 7.9 NNE 19 26 10 14 - - 0.0
22/07:20pm 24.9 21.3 9.9 38 8.4 N 19 26 10 14 - - 0.0
22/07:10pm 25.3 21.0 9.5 36 8.8 NNE 22 30 12 16 - - 0.0
22/07:00pm 25.7 21.9 9.2 35 9.2 NNE 19 26 10 14 - - 0.0
22/06:50pm 26.1 21.0 9.1 34 9.5 NNE 26 30 14 16 - - 0.0
22/06:40pm 26.4 21.2 8.9 33 9.7 NNE 26 39 14 21 - - 0.0
22/06:30pm 26.7 20.8 9.0 32 9.9 NNE 30 35 16 19 - - 0.0
22/06:20pm 26.9 20.1 9.1 32 10.0 NNE 35 43 19 23 - - 0.0
22/06:10pm 27.1 20.3 9.1 32 10.1 NE 35 43 19 23 - - 0.0
22/06:00pm 27.4 19.8 9.0 31 10.3 NNE 39 43 21 23 - - 0.0
22/05:50pm 27.8 20.2 8.9 30 10.6 NNE 39 50 21 27 - - 0.0
22/05:40pm 28.2 20.5 8.8 29 10.9 NNE 39 50 21 27 - - 0.0
22/05:30pm 28.5 20.8 8.8 29 11.1 NE 39 50 21 27 - - 0.0
22/05:20pm 28.7 20.2 8.6 28 11.3 NE 43 46 23 25 - - 0.0
22/05:10pm 29.1 22.2 8.8 28 11.4 NNE 35 43 19 23 - - 0.0
22/05:00pm 29.4 22.5 9.0 28 11.5 NNE 35 43 19 23 - - 0.0
22/04:50pm 29.4 22.6 9.2 28 11.5 NNE 35 43 19 23 - - 0.0
22/04:40pm 29.8 23.0 9.4 28 11.6 NNE 35 43 19 23 - - 0.0
22/04:30pm 30.2 24.5 9.7 28 11.8 NNE 30 39 16 21 - - 0.0
22/04:20pm 29.9 22.4 9.6 28 11.6 NE 39 43 21 23 - - 0.0
22/04:10pm 30.4 24.8 10.0 28 11.8 NNE 30 39 16 21 - - 0.0
22/04:00pm 30.3 24.2 9.8 28 11.8 NNE 32 35 17 19 - - 0.0
22/03:50pm 30.8 26.5 9.5 26 12.2 NNE 22 30 12 16 - - 0.0
22/03:40pm 30.6 - 8.7 25 12.4 - - - - - - - -
22/03:30pm 30.6 - 9.8 27 12.0 - - - - - - - -
22/03:20pm 30.9 - 9.3 26 12.4 - - - - - - - -
22/03:10pm 30.2 - 8.4 25 12.3 - - - - - - - -
22/03:00pm 30.1 - 8.3 25 12.2 - - - - - - - -
22/02:50pm 30.1 - 8.0 25 12.3 - - - - - - - -
22/02:40pm 30.1 - 8.2 25 12.3 - - - - - - - -
22/02:30pm 30.1 - 8.5 26 12.2 - - - - - - - -
22/02:20pm 30.8 - 8.4 24 12.6 - - - - - - - -
22/02:10pm 30.4 - 8.1 25 12.5 - - - - - - - -
22/02:00pm 30.6 - 8.3 25 12.5 - - - - - - - -
22/01:50pm 30.4 - 7.9 24 12.6 - - - - - - - -
22/01:40pm 29.8 - 8.5 26 12.0 - - - - - - - -
22/01:30pm 30.5 - 8.9 26 12.3 - - - - - - - -
22/01:20pm 29.9 - 8.5 26 12.0 - - - - - - - -
22/01:10pm 29.8 - 8.1 25 12.1 - - - - - - - -
22/01:00pm 29.4 - 8.4 27 11.8 - - - - - - - -
22/12:50pm 30.1 - 8.1 25 12.3 - - - - - - - -
22/12:40pm 29.6 - 8.4 26 11.9 - - - - - - - -
22/12:30pm 28.9 - 8.1 27 11.6 - - - - - - - -
22/12:20pm 28.8 - 8.2 27 11.5 - - - - - - - -
22/12:10pm 28.5 - 7.5 26 11.5 - - - - - - - -
22/12:00pm 28.3 - 8.2 28 11.2 - - - - - - - -
22/11:50am 28.0 - 8.8 30 10.7 - - - - - - - -
22/11:40am 27.8 - 8.3 29 10.8 - - - - - - - -
22/11:30am 27.5 - 8.8 30 10.4 - - - - - - - -
22/11:20am 27.7 - 8.3 29 10.8 - - - - - - - -
22/11:10am 26.9 - 7.6 29 10.5 - - - - - - - -
22/11:00am 26.4 - 9.1 33 9.7 - - - - - - - -
22/10:50am 26.2 - 9.3 34 9.5 - - - - - - - -
22/10:40am 26.0 - 9.3 34 9.3 - - - - - - - -
22/10:10am 25.2 19.6 10.2 38 8.5 WNW 30 35 16 19 - - 0.0
22/10:00am 25.1 20.2 9.8 38 8.6 WNW 26 30 14 16 - - 0.0
22/09:50am 24.5 18.9 10.2 40 8.1 WNW 30 35 16 19 - - 0.0
22/09:40am 24.1 19.4 10.5 42 7.7 WNW 26 30 14 16 - - 0.0
22/09:30am 23.9 19.2 10.5 42 7.6 WNW 26 32 14 17 - - 0.0
22/09:20am 23.5 19.7 11.1 45 7.1 WNW 22 32 12 17 - - 0.0
22/09:10am 23.0 17.8 11.6 48 6.5 W 30 39 16 21 - - 0.0
22/09:00am 22.7 18.2 11.5 49 6.4 W 26 30 14 16 - - 0.0
22/08:50am 22.4 18.9 12.3 52 5.8 W 22 32 12 17 - - 0.0
22/08:40am 22.5 18.9 11.9 51 6.1 W 22 26 12 14 - - 0.0
22/08:30am 22.3 20.1 12.0 52 5.9 WSW 15 19 8 10 - - 0.0
22/08:20am 21.9 20.3 11.5 51 5.9 W 11 19 6 10 - - 0.0
22/08:10am 21.4 20.7 11.9 54 5.4 W 7 11 4 6 - - 0.0
22/08:00am 20.6 19.1 12.0 57 4.9 W 11 15 6 8 - - 0.0
22/07:50am 20.5 20.0 12.7 61 4.5 W 7 11 4 6 - - 0.0
22/07:40am 20.0 19.5 12.7 63 4.2 ENE 7 11 4 6 - - 0.0
22/07:30am 19.5 18.5 13.4 68 3.5 E 11 19 6 10 - - 0.0
22/07:20am 18.9 18.0 13.7 72 3.0 - 11 15 6 8 - - 0.0
22/07:10am 18.2 18.0 13.5 74 2.7 E 7 11 4 6 - - 0.0
22/07:00am 17.8 18.3 14.0 78 2.2 E 4 7 2 4 - - 0.0
22/06:50am 17.4 17.9 13.9 80 2.0 ESE 4 11 2 6 - - 0.0
22/06:40am 16.9 16.6 13.2 79 2.1 ESE 7 7 4 4 - - 0.0
22/06:30am 16.7 17.0 13.3 80 1.9 SE 4 7 2 4 - - 0.0
22/06:20am 16.7 16.9 13.2 80 2.0 ESE 4 7 2 4 - - 0.0
22/06:10am 16.6 15.5 13.1 80 2.0 SE 11 15 6 8 - - 0.0
22/06:00am 16.5 16.1 12.9 79 2.0 SE 7 11 4 6 - - 0.0
22/05:50am 16.0 15.7 13.3 84 1.5 ESE 7 11 4 6 - - 0.0
22/05:40am 16.4 15.2 12.9 80 2.0 ESE 11 11 6 6 - - 0.0
22/05:30am 16.0 14.9 13.2 83 1.6 ESE 11 15 6 8 - - 0.0
22/05:20am 16.4 16.1 13.2 81 1.8 ESE 7 11 4 6 - - 0.0
22/05:10am 16.9 15.8 13.0 78 2.2 SE 11 15 6 8 - - 0.0
22/05:00am 16.7 16.2 12.7 77 2.3 SE 7 11 4 6 - - 0.0
22/04:50am 16.5 16.0 12.6 78 2.2 SE 7 11 4 6 - - 0.0
22/04:40am 16.4 15.2 12.9 80 2.0 SE 11 11 6 6 - - 0.0
22/04:30am 16.2 15.0 12.9 81 1.9 ESE 11 15 6 8 - - 0.0
22/04:20am 16.9 16.4 12.7 76 2.4 ESE 7 11 4 6 - - 0.0
22/04:10am 16.8 15.6 12.8 77 2.3 ESE 11 11 6 6 - - 0.0
22/04:00am 17.1 16.8 11.5 69 3.1 SE 4 11 2 6 - - 0.0
22/03:50am 16.6 15.9 11.9 74 2.6 SE 7 15 4 8 - - 0.0
22/03:40am 16.9 17.0 12.7 76 2.4 E 4 15 2 8 - - 0.0
22/03:30am 17.0 17.0 12.4 74 2.6 ESE 4 11 2 6 - - 0.0
22/03:20am 17.1 17.9 12.6 75 2.5 CALM 0 7 0 4 - - 0.0
22/03:10am 17.3 16.9 12.9 75 2.5 E 7 11 4 6 - - 0.0
22/03:00am 17.7 17.8 12.7 72 2.8 ESE 4 11 2 6 - - 0.0
22/02:50am 17.8 17.2 12.4 70 3.1 SE 7 11 4 6 - - 0.0
22/02:40am 17.7 17.6 12.2 70 3.1 S 4 7 2 4 - - 0.0
22/02:30am 17.5 16.7 11.8 69 3.2 SE 7 7 4 4 - - 0.0
22/02:20am 17.4 17.3 12.1 71 3.0 SE 4 11 2 6 - - 0.0
22/02:10am 17.3 17.2 12.2 72 2.9 ESE 4 11 2 6 - - 0.0
22/02:00am 17.6 17.7 12.6 72 2.8 N 4 11 2 6 - - 0.0
22/01:50am 17.8 17.1 12.0 69 3.3 S 7 11 4 6 - - 0.0
22/01:40am 17.8 17.8 12.4 70 3.1 ESE 4 7 2 4 - - 0.0
22/01:30am 18.0 17.9 12.1 68 3.3 E 4 11 2 6 - - 0.0
22/01:20am 18.1 18.0 12.0 67 3.4 E 4 7 2 4 - - 0.0
22/01:10am 18.1 17.5 12.3 69 3.3 SE 7 11 4 6 - - 0.0
22/01:00am 18.4 17.7 12.0 66 3.6 ENE 7 11 4 6 - - 0.0
22/12:50am 18.2 18.1 12.0 67 3.5 ENE 4 7 2 4 - - 0.0
22/12:40am 18.3 16.8 12.0 66 3.6 NE 11 19 6 10 - - 0.0
22/12:30am 18.1 17.9 11.8 66 3.5 NNE 4 11 2 6 - - 0.0
22/12:20am 18.0 17.8 11.8 67 3.5 NE 4 7 2 4 - - 0.0
22/12:10am 18.2 18.2 12.4 69 3.3 E 4 11 2 6 - - 0.0
22/12:00am 18.7 16.4 11.9 64 3.8 NE 15 22 8 12 - - 0.0
 
Date/Time
EDT
Temp
°C
App
Temp
°C
Dew
Point
°C
Rel
Hum
%
Delta-T
°C
Wind Press
QNH
hPa
Press
MSL
hPa
Rain since
9am
mm
Dir  Spd
km/h
Gust
km/h
Spd
kts
Gust
kts
21/11:50pm 18.3 17.8 12.7 70 3.2 E 7 11 4 6 - - 0.0
21/11:40pm 18.6 17.2 12.2 66 3.6 NE 11 15 6 8 - - 0.0
21/11:30pm 18.8 16.1 12.9 68 3.4 ENE 19 22 10 12 - - 0.0
21/11:20pm 19.1 15.7 12.5 65 3.8 NE 22 26 12 14 - - 0.0
21/11:10pm 19.0 16.2 12.5 66 3.7 NE 19 26 10 14 - - 0.0
21/11:00pm 19.1 15.8 12.8 67 3.6 NE 22 26 12 14 - - 0.0
21/10:50pm 19.3 16.0 12.9 66 3.7 ENE 22 30 12 16 - - 0.0
21/10:40pm 19.4 16.6 12.6 64 3.9 ENE 19 26 10 14 - - 0.0
21/10:30pm 19.8 17.7 12.5 62 4.2 NE 15 19 8 10 - - 0.0
21/10:20pm 20.2 17.8 11.4 57 5.0 NE 15 22 8 12 - - 0.0
21/10:10pm 20.2 17.6 10.7 54 5.3 ENE 15 19 8 10 - - 0.0
21/10:00pm 20.4 18.8 11.4 56 5.1 NNE 11 15 6 8 - - 0.0
21/09:50pm 20.5 18.2 11.7 57 5.0 NE 15 19 8 10 - - 0.0
21/09:40pm 20.5 19.0 11.9 57 4.9 ENE 11 15 6 8 - - 0.0
21/09:30pm 20.9 19.4 11.8 56 5.2 ENE 11 15 6 8 - - 0.0
21/09:20pm 21.3 18.8 11.1 52 5.7 NE 15 19 8 10 - - 0.0
21/09:10pm 21.4 18.9 11.2 52 5.8 NNE 15 19 8 10 - - 0.0
21/09:00pm 21.7 19.9 10.7 49 6.2 NNE 11 15 6 8 - - 0.0
21/08:50pm 21.9 20.0 10.6 48 6.3 NNE 11 19 6 10 - - 0.0
21/08:40pm 22.1 20.3 10.7 48 6.4 ENE 11 15 6 8 - - 0.0
21/08:30pm 22.7 19.9 10.0 44 7.1 NNE 15 26 8 14 - - 0.0
21/08:20pm 22.9 19.3 9.7 43 7.3 NNE 19 26 10 14 - - 0.0
21/08:10pm 23.0 20.2 9.9 43 7.3 N 15 22 8 12 - - 0.0
21/08:00pm 23.4 19.9 10.1 43 7.4 NNE 19 26 10 14 - - 0.0
21/07:50pm 23.5 20.0 10.3 43 7.4 N 19 26 10 14 - - 0.0
21/07:40pm 23.6 20.4 11.1 45 7.1 NNE 19 22 10 12 - - 0.0
21/07:30pm 24.1 20.4 11.4 45 7.3 NNE 22 26 12 14 - - 0.0
21/07:20pm 24.5 20.1 11.8 45 7.4 NNE 26 32 14 17 - - 0.0
21/07:10pm 24.9 20.6 11.9 44 7.6 N 26 30 14 16 - - 0.0
21/07:00pm 25.3 20.9 11.7 42 7.9 N 26 30 14 16 - - 0.0
21/06:50pm 25.8 20.2 11.5 40 8.3 N 32 35 17 19 - - 0.0
21/06:40pm 26.4 21.8 10.9 38 8.9 NNE 26 30 14 16 - - 0.0
21/06:30pm 26.9 22.0 10.1 34 9.6 N 26 32 14 17 - - 0.0
21/06:20pm 27.3 23.1 9.8 33 9.9 N 22 30 12 16 - - 0.0
21/06:10pm 27.7 23.4 9.5 32 10.3 N 22 32 12 17 - - 0.0
21/06:00pm 27.9 22.9 9.4 31 10.5 N 26 30 14 16 - - 0.0
21/05:50pm 28.2 22.3 9.1 30 10.8 N 30 35 16 19 - - 0.0
21/05:40pm 28.4 22.6 9.4 30 10.8 N 30 35 16 19 - - 0.0
21/05:30pm 28.7 22.8 9.1 29 11.1 N 30 35 16 19 - - 0.0
21/05:20pm 29.0 23.1 9.2 29 11.2 N 30 39 16 21 - - 0.0
21/05:10pm 29.6 23.7 9.2 28 11.6 N 30 35 16 19 - - 0.0
21/05:00pm 30.3 25.2 9.1 26 12.1 NNW 26 32 14 17 - - 0.0
21/04:50pm 30.4 26.1 9.5 27 12.0 N 22 26 12 14 - - 0.0
21/04:40pm 30.4 25.5 9.8 28 11.9 N 26 35 14 19 - - 0.0
21/04:30pm 30.3 24.5 9.4 27 11.9 NNW 30 39 16 21 - - 0.0
21/04:20pm 30.5 24.8 9.8 27 11.9 N 30 32 16 17 - - 0.0
21/04:10pm 31.0 26.1 10.0 27 12.2 NNW 26 35 14 19 - - 0.0
21/04:00pm 31.1 25.9 8.9 25 12.6 N 26 39 14 21 - - 0.0
21/03:50pm 31.0 25.3 9.8 27 12.2 N 30 35 16 19 - - 0.0
21/03:40pm 31.3 26.3 9.5 26 12.5 NNW 26 32 14 17 - - 0.0
21/03:30pm 31.2 26.4 10.4 27 12.1 N 26 43 14 23 - - 0.0
21/03:20pm 31.2 26.4 10.2 27 12.2 NW 26 32 14 17 - - 0.0
21/03:10pm 31.0 25.5 10.7 28 11.9 N 30 35 16 19 - - 0.0
21/03:00pm 31.4 25.8 10.3 27 12.3 NW 30 35 16 19 - - 0.0
21/02:50pm 31.6 27.6 10.6 27 12.3 NW 22 39 12 21 - - 0.0
21/02:40pm 30.7 26.0 10.7 29 11.7 N 26 35 14 19 - - 0.0
21/02:30pm 30.4 25.0 10.9 30 11.4 NNE 30 32 16 17 - - 0.0
21/02:20pm 30.5 26.0 11.5 31 11.2 NNW 26 39 14 21 - - 0.0
21/02:10pm 30.2 25.8 11.7 32 11.0 N 26 32 14 17 - - 0.0
21/02:00pm 30.4 26.0 11.8 31 11.0 N 26 35 14 19 - - 0.0
21/01:50pm 30.3 26.7 11.9 32 10.9 N 22 30 12 16 - - 0.0
21/01:40pm 30.0 24.7 11.3 31 11.0 N 30 32 16 17 - - 0.0
21/01:30pm 30.3 26.0 11.9 32 10.9 NNW 26 39 14 21 - - 0.0
21/01:20pm 30.3 26.6 11.4 31 11.1 N 22 32 12 17 - - 0.0
21/01:10pm 29.9 26.3 11.8 32 10.7 N 22 30 12 16 - - 0.0
21/01:00pm 29.6 26.4 13.0 36 10.0 NNW 22 30 12 16 - - 0.0
21/12:50pm 29.3 25.8 12.2 34 10.2 NNW 22 30 12 16 - - 0.0
21/12:40pm 28.8 25.5 12.9 37 9.5 N 22 30 12 16 - - 0.0
21/12:30pm 29.2 25.2 13.1 37 9.7 NNW 26 35 14 19 - - 0.0
21/12:20pm 28.9 26.0 14.0 40 9.1 NW 22 30 12 16 - - 0.0
21/12:10pm 28.1 24.3 13.6 41 8.8 NNE 26 30 14 16 - - 0.0
21/12:00pm 28.0 24.8 13.0 39 9.0 N 22 26 12 14 - - 0.0
21/11:50am 27.6 23.9 14.0 43 8.3 N 26 30 14 16 - - 0.0
21/11:40am 27.5 24.7 14.3 44 8.1 N 22 30 12 16 - - 0.0
21/11:30am 27.1 24.9 14.4 45 7.8 WNW 19 30 10 16 - - 0.0
21/11:20am 27.3 25.0 14.2 44 8.0 N 19 26 10 14 - - 0.0
21/11:10am 27.2 24.5 14.6 46 7.7 N 22 32 12 17 - - 0.0
21/11:00am 26.7 23.8 14.1 46 7.6 NNE 22 32 12 17 - - 0.0
21/10:50am 26.2 22.0 14.6 48 7.1 NNE 30 39 16 21 - - 0.0
21/10:40am 26.0 21.9 14.9 50 6.8 N 30 43 16 23 - - 0.0
21/10:30am - - 14.5 - - NNE 30 35 16 19 - - 0.0
21/10:20am - - 14.7 - - N 26 35 14 19 - - 0.0
21/10:10am - - 14.7 - - NNE 30 35 16 19 - - 0.0
21/10:00am - - 15.2 - - NNE 30 35 16 19 - - 0.0
21/09:50am - - 15.0 - - NE 26 32 14 17 - - 0.0
21/09:40am - - 15.4 - - NNE 26 32 14 17 - - 0.0
21/09:30am - - 15.0 - - NNE 26 35 14 19 - - 0.0
21/09:20am - - 14.2 - - NNE 32 39 17 21 - - 0.0
21/09:10am - - 14.8 - - N 19 26 10 14 - - 0.0
21/09:00am - - 15.0 - - N 22 30 12 16 - - 0.0
21/08:50am - - 15.3 - - N 26 30 14 16 - - 0.0
21/08:40am - - 15.4 - - NNE 22 30 12 16 - - 0.0
21/08:30am - - 16.1 - - NNE 19 26 10 14 - - 0.0
21/08:20am - - 15.5 - - NE 26 32 14 17 - - 0.0
21/08:10am - - 16.4 - - NNE 19 22 10 12 - - 0.0
21/08:00am - - 16.3 - - NE 22 32 12 17 - - 0.0
21/07:50am - - 16.2 - - NE 22 30 12 16 - - 0.0
21/07:40am - - 16.6 - - NE 26 30 14 16 - - 0.0
21/07:30am - - 16.8 - - NE 26 32 14 17 - - 0.0
21/07:20am - - 16.8 - - NE 22 26 12 14 - - 0.0
21/07:10am - - 17.0 - - NE 26 30 14 16 - - 0.0
21/07:00am - - 17.0 - - NE 26 30 14 16 - - 0.0
21/06:50am - - 16.9 - - NE 26 32 14 17 - - 0.0
21/06:40am - - 17.1 - - NE 22 30 12 16 - - 0.0
21/06:30am - - 17.1 - - NE 30 35 16 19 - - 0.0
21/06:20am - - 17.0 - - NE 30 39 16 21 - - 0.0
21/06:10am - - 17.2 - - NE 30 35 16 19 - - 0.0
21/06:00am - - 17.1 - - NE 22 30 12 16 - - 0.0
21/05:50am - - 17.1 - - NE 30 39 16 21 - - 0.0
21/05:40am - - 17.2 - - NE 32 35 17 19 - - 0.0
21/05:30am - - 17.2 - - NE 30 32 16 17 - - 0.0
21/05:20am - - 17.3 - - NE 30 39 16 21 - - 0.0
21/04:30am 20.2 17.8 17.4 84 1.7 NE 26 30 14 16 - - 0.0
21/04:20am 20.3 17.2 17.5 84 1.8 NE 30 35 16 19 - - 0.0
21/04:10am 20.4 16.9 17.5 83 1.8 NE 32 35 17 19 - - 0.0
21/04:00am 20.5 17.4 17.6 83 1.8 NE 30 39 16 21 - - 0.0
21/03:50am 20.6 17.5 17.5 82 1.9 NE 30 39 16 21 - - 0.0
21/03:40am 20.7 17.2 17.5 82 2.0 NE 32 43 17 23 - - 0.0
21/03:30am 20.7 17.3 17.6 82 1.9 NE 32 35 17 19 - - 0.0
21/03:20am 20.7 16.7 17.5 82 2.0 NE 35 39 19 21 - - 0.0
21/03:10am 20.8 17.3 17.5 81 2.1 NE 32 43 17 23 - - 0.0
21/03:00am 20.9 16.9 17.5 81 2.1 NE 35 43 19 23 - - 0.0
21/02:50am 20.9 17.8 17.5 81 2.1 NE 30 35 16 19 - - 0.0
21/02:40am 21.0 17.6 17.6 81 2.1 NE 32 39 17 21 - - 0.0
21/02:30am 21.0 16.9 17.4 80 2.3 NE 35 46 19 25 - - 0.0
21/02:20am 21.1 17.5 17.3 79 2.4 NE 32 39 17 21 - - 0.0
21/02:10am 21.1 17.9 17.3 79 2.4 NE 30 35 16 19 - - 0.0
21/02:00am 21.0 17.9 17.5 80 2.2 NE 30 32 16 17 - - 0.0
21/01:50am 21.0 17.9 17.5 80 2.2 NE 30 35 16 19 - - 0.0
21/01:40am 21.1 18.0 17.5 80 2.3 NE 30 32 16 17 - - 0.0
21/01:30am 21.1 18.0 17.4 79 2.3 NE 30 35 16 19 - - 0.0
21/01:20am 21.1 18.7 17.3 79 2.4 NE 26 32 14 17 - - 0.0
21/01:10am 21.0 18.5 17.1 78 2.4 NE 26 30 14 16 - - 0.0
21/01:00am 21.0 18.5 17.1 78 2.4 NE 26 32 14 17 - - 0.0
21/12:50am 21.2 18.7 17.2 78 2.5 ENE 26 32 14 17 - - 0.0
21/12:40am 21.3 19.6 17.2 77 2.6 ENE 22 30 12 16 - - 0.0
21/12:30am 21.5 18.0 17.4 77 2.6 NE 32 39 17 21 - - 0.0
21/12:20am 21.5 18.0 17.5 78 2.5 NE 32 35 17 19 - - 0.0
21/12:10am 21.6 18.3 17.9 79 2.3 NE 32 35 17 19 - - 0.0
21/12:00am 21.6 18.7 17.9 79 2.3 NE 30 35 16 19 - - 0.0
 
Date/Time
EDT
Temp
°C
App
Temp
°C
Dew
Point
°C
Rel
Hum
%
Delta-T
°C
Wind Press
QNH
hPa
Press
MSL
hPa
Rain since
9am
mm
Dir  Spd
km/h
Gust
km/h
Spd
kts
Gust
kts
20/11:50pm 21.4 18.6 18.2 82 2.0 ENE 30 32 16 17 - - 0.0
20/11:40pm 21.5 19.6 18.6 83 1.9 ENE 26 30 14 16 - - 0.0
20/11:30pm 21.6 19.8 18.8 84 1.8 ENE 26 30 14 16 - - 0.0
20/11:20pm 21.6 20.5 18.7 83 1.9 ENE 22 30 12 16 - - 0.0
20/11:10pm 21.6 20.5 18.6 83 1.9 ENE 22 26 12 14 - - 0.0
20/11:00pm 21.6 20.5 18.6 83 1.9 ENE 22 26 12 14 - - 0.0
20/10:50pm 21.7 21.1 18.5 82 2.0 E 19 26 10 14 - - 0.0
20/10:40pm 21.6 21.0 18.5 82 2.0 E 19 26 10 14 - - 0.0
20/10:30pm 21.7 21.1 18.5 82 2.0 E 19 22 10 12 - - 0.0
20/10:20pm 21.6 21.7 18.4 82 2.0 - 15 19 8 10 - - 0.0
20/10:10pm 21.6 21.0 18.4 82 2.0 E 19 22 10 12 - - 0.0
20/10:00pm 21.6 20.4 18.4 82 2.0 E 22 26 12 14 - - 0.0
20/09:50pm 21.6 19.6 18.4 82 2.0 E 26 30 14 16 - - 0.0
20/09:40pm 21.6 19.6 18.4 82 2.0 E 26 30 14 16 - - 0.0
20/09:30pm 21.6 21.0 18.5 82 2.0 ESE 19 26 10 14 - - 0.0
20/09:20pm 21.6 21.0 18.5 82 2.0 ESE 19 22 10 12 - - 0.0
20/09:10pm 21.5 20.3 18.5 83 1.9 E 22 26 12 14 - - 0.0
20/09:00pm 21.5 21.0 18.6 83 1.9 E 19 26 10 14 - - 0.0
20/08:50pm 21.5 20.4 18.6 83 1.9 ESE 22 26 12 14 - - 0.0
20/08:40pm 21.6 20.5 18.6 83 1.9 ESE 22 26 12 14 - - 0.0
20/08:30pm 21.6 20.4 18.5 82 2.0 ESE 22 26 12 14 - - 0.0
20/08:20pm 21.8 19.9 18.5 81 2.1 ESE 26 30 14 16 - - 0.0
20/08:10pm 21.8 19.1 18.4 81 2.2 ESE 30 32 16 17 - - 0.0
20/08:00pm 21.9 19.9 18.3 80 2.3 ESE 26 30 14 16 - - 0.0
20/07:50pm 22.0 20.0 18.3 79 2.4 ESE 26 32 14 17 - - 0.0
20/07:40pm 22.7 21.5 18.5 77 2.7 ESE 22 32 12 17 - - 0.0
20/07:30pm 25.7 25.3 20.1 71 3.7 ESE 22 32 12 17 - - 0.0
20/07:20pm - - - - - - - - - - - - 0.0
20/07:10pm - - - - - - - - - - - - 0.0
20/07:00pm - - - - - - - - - - - - 0.0
20/06:50pm - - - - - - - - - - - - 0.0
20/06:40pm - - - - - - - - - - - - 0.0
20/04:00pm 29.7 28.1 16.0 43 8.6 SSE 19 22 10 12 - - 0.0
20/03:50pm 30.6 29.0 16.0 41 9.2 SSE 19 22 10 12 - - 0.0
20/03:40pm 31.9 31.0 15.9 38 10.2 SE 15 22 8 12 - - 0.0
20/03:30pm 32.5 30.7 15.6 36 10.7 SE 19 22 10 12 - - 0.0
20/03:20pm 33.2 31.5 15.8 35 11.1 SSE 19 22 10 12 - - 0.0
20/03:10pm 34.1 33.1 15.5 32 11.8 SE 15 19 8 10 - - 0.0
20/03:00pm 34.7 33.1 15.9 32 12.0 SE 19 22 10 12 - - 0.0
20/02:50pm 36.1 34.4 15.8 30 13.0 SSE 19 26 10 14 - - 0.0
20/02:40pm 37.4 36.2 15.0 26 14.3 SE 15 22 8 12 - - 0.0
20/02:30pm 38.6 36.0 10.6 18 16.9 SE 15 19 8 10 - - 0.0
20/02:20pm 38.9 35.5 7.6 15 18.1 SE 15 15 8 8 - - 0.0
20/02:10pm 39.1 36.1 5.9 13 18.7 S 11 19 6 10 - - 0.0
20/02:00pm 39.3 36.0 4.8 12 19.2 SE 11 15 6 8 - - 0.0
20/01:50pm 39.2 36.2 6.0 13 18.8 SSE 11 19 6 10 - - 0.0
20/01:40pm 39.0 35.9 5.4 13 18.8 SE 11 15 6 8 - - 0.0
20/01:30pm 38.9 34.7 3.9 11 19.1 S 15 26 8 14 - - 0.0
20/01:20pm 38.8 35.1 2.3 10 19.5 SE 11 15 6 8 - - 0.0
20/01:00pm 38.6 34.0 1.5 10 19.5 S 15 22 8 12 - - 0.0
20/12:50pm 38.6 34.1 2.4 10 19.3 SE 15 19 8 10 - - 0.0
20/12:40pm 38.7 34.2 2.2 10 19.4 SSE 15 19 8 10 - - 0.0
20/12:30pm 37.8 33.4 2.6 11 18.8 SSE 15 19 8 10 - - 0.0
20/12:20pm 38.2 34.7 3.4 11 18.8 SSE 11 19 6 10 - - 0.0
20/12:10pm 37.8 34.6 4.9 13 18.2 SE 11 15 6 8 - - 0.0
20/12:00pm 37.6 34.5 5.6 14 17.8 E 11 15 6 8 - - 0.0
20/11:50am 36.7 34.1 7.7 17 16.6 SE 11 15 6 8 - - 0.0
20/11:40am 36.1 33.1 9.1 19 15.8 SSE 15 19 8 10 - - 0.0
20/11:30am 35.9 33.6 9.0 19 15.7 SE 11 15 6 8 - - 0.0
20/11:20am 35.5 33.3 9.2 20 15.3 SSE 11 15 6 8 - - 0.0
20/11:10am 35.3 33.1 9.4 20 15.1 SSE 11 15 6 8 - - 0.0
20/11:00am 34.8 33.0 10.9 23 14.3 SSE 11 15 6 8 - - 0.0
20/10:50am 34.3 32.4 10.5 23 14.1 E 11 11 6 6 - - 0.0
20/10:40am 33.3 31.7 11.5 26 13.0 SSE 11 15 6 8 - - 0.0
20/10:30am 32.5 30.2 11.8 28 12.4 SSE 15 19 8 10 - - 0.0
20/10:20am 32.0 30.5 11.9 29 12.0 SE 11 15 6 8 - - 0.0
20/10:10am 31.5 30.0 11.8 30 11.8 SSE 11 15 6 8 - - 0.0
20/10:00am 31.2 30.6 12.2 31 11.4 SSE 7 15 4 8 - - 0.0
20/09:50am 30.8 - 11.8 31 11.3 - - - - - - - 0.0
20/09:40am 30.2 - 12.2 33 10.7 - - - - - - - 0.0
20/09:30am 29.5 - 11.8 33 10.5 - - - - - - - 0.0
20/09:20am 28.6 - 11.5 34 10.0 - - - - - - - 0.0
20/09:10am 27.7 - 11.2 35 9.6 - - - - - - - 0.0
20/09:00am 27.3 - 11.1 36 9.4 - - - - - - - 0.0
20/08:50am 26.9 - 10.8 36 9.3 - - - - - - - 0.0
20/08:40am 26.3 - 10.7 37 8.9 - - - - - - - 0.0
20/08:30am 25.4 - 10.9 40 8.3 - - - - - - - 0.0
20/08:20am 24.8 - 10.6 40 8.1 - - - - - - - 0.0
20/08:10am 24.4 - 10.7 42 7.8 - - - - - - - 0.0
20/08:00am 23.8 - 10.5 43 7.5 - - - - - - - 0.0
20/07:50am 23.0 - 10.4 45 7.1 - - - - - - - 0.0
20/07:40am 22.1 - 10.4 47 6.5 - - - - - - - 0.0
20/07:30am 21.0 - 10.5 51 5.8 - - - - - - - 0.0
20/07:20am 20.2 - 10.9 55 5.2 - - - - - - - 0.0
20/07:10am 19.8 - 10.7 55 5.0 - - - - - - - 0.0
20/07:00am 19.2 - 10.4 56 4.8 - - - - - - - 0.0
20/06:50am 18.7 - 10.2 57 4.6 - - - - - - - 0.0
20/06:40am 18.1 - 10.0 59 4.4 - - - - - - - 0.0
20/06:30am 17.6 - 9.9 60 4.2 - - - - - - - 0.0
20/06:20am 17.6 - 9.9 60 4.2 - - - - - - - 0.0
20/06:10am 18.0 - 9.9 59 4.4 - - - - - - - 0.0
20/06:00am 18.3 - 10.0 58 4.5 - - - - - - - 0.0
20/05:50am 18.2 - 10.0 58 4.5 - - - - - - - 0.0
20/05:40am 17.8 - 9.6 58 4.4 - - - - - - - 0.0
20/05:30am 17.6 - 9.9 60 4.2 - - - - - - - 0.0
20/05:20am 17.7 - 9.9 60 4.2 - - - - - - - 0.0
20/05:10am 17.7 - 10.0 60 4.2 - - - - - - - 0.0
20/05:00am 17.8 - 10.1 60 4.2 - - - - - - - 0.0
20/04:50am 18.0 - 10.4 61 4.2 - - - - - - - 0.0
20/04:40am 17.8 - 10.4 62 4.0 - - - - - - - 0.0
20/04:30am 17.9 - 10.3 61 4.1 - - - - - - - 0.0
20/04:20am 18.1 - 10.3 60 4.3 - - - - - - - 0.0
20/04:10am 18.3 - 10.5 60 4.3 - - - - - - - 0.0
20/04:00am 18.3 - 10.5 60 4.3 - - - - - - - 0.0
20/03:50am 18.5 - 10.5 59 4.4 - - - - - - - 0.0
20/03:40am 18.7 - 10.4 58 4.6 - - - - - - - 0.0
20/03:30am 18.8 - 10.5 58 4.6 - - - - - - - 0.0
20/03:20am 18.6 - 10.5 59 4.4 - - - - - - - 0.0
20/03:10am 18.7 - 10.5 59 4.5 - - - - - - - 0.0
20/03:00am 18.8 - 10.5 58 4.6 - - - - - - - 0.0
20/02:50am 18.9 - 10.6 58 4.6 - - - - - - - 0.0
20/02:40am 19.1 - 10.4 57 4.8 - - - - - - - 0.0

Other formats

Comma delimited format used in spreadsheet applications
http://www.bom.gov.au/fwo/IDN60801/IDN60801.99786.axf

JavaScript Object Notation format (JSON) in row-major order
http://www.bom.gov.au/fwo/IDN60801/IDN60801.99786.json

Data quality

Most of these data are generated automatically and are frequently updated. Quality checks on data are not normally performed. It is possible for incorrect values to appear. Refer to information at About Latest Weather Observations and please check the disclaimer before using these data.